Time;durP1;ratioP1;P1;durP2;ratioP2;P2;SDS_P1;SDS_P2;PMS_P1;PMS_P2;Temp;Humidity;BMP_temperature;BMP_pressure;BME280_temperature;BME280_humidity;BME280_pressure;Samples;Min_cycle;Max_cycle;Signal;HPM_P1;HPM_P2
2021/11/14 00:00:47;;;;;;;;;;;6.70;99.90;;;;;;5074656;28;19936;-84
2021/11/14 00:03:14;;;;;;;;;;;6.70;99.90;;;;;;5074359;28;19947;-84
2021/11/14 00:05:41;;;;;;;;;;;6.70;99.90;;;;;;5076692;28;19936;-81
2021/11/14 00:08:07;;;;;;;;;;;6.70;99.90;;;;;;5077086;28;19928;-81
2021/11/14 00:10:35;;;;;;;;;;;6.70;99.90;;;;;;5079772;28;19947;-82
2021/11/14 00:13:03;;;;;;;;;;;6.70;99.90;;;;;;5079119;28;20024;-83
2021/11/14 00:15:30;;;;;;;;;;;6.70;99.90;;;;;;5079478;28;19909;-84
2021/11/14 00:17:56;;;;;;;;;;;6.80;99.90;;;;;;5079455;28;20360;-83
2021/11/14 00:20:23;;;;;;;;;;;6.80;99.90;;;;;;5079124;28;19920;-83
2021/11/14 00:22:50;;;;;;;;;;;6.80;99.90;;;;;;5070185;28;19928;-83
2021/11/14 00:25:18;;;;;;;;;;;6.90;99.90;;;;;;5071822;28;19992;-82
2021/11/14 00:27:45;;;;;;;;;;;6.90;99.90;;;;;;5065100;28;19968;-82
2021/11/14 00:30:13;;;;;;;;;;;6.80;99.90;;;;;;5065511;28;19924;-84
2021/11/14 00:32:40;;;;;;;;;;;6.80;99.90;;;;;;5064175;28;19929;-83
2021/11/14 00:35:07;;;;;;;;;;;6.80;99.90;;;;;;5067069;28;19925;-83
2021/11/14 00:37:35;;;;;;;;;;;6.80;99.90;;;;;;5064527;28;19940;-84
2021/11/14 00:40:03;;;;;;;;;;;6.90;99.90;;;;;;5064068;28;20020;-82
2021/11/14 00:42:30;;;;;;;;;;;6.90;99.90;;;;;;5064136;28;19925;-82
2021/11/14 00:44:56;;;;;;;;;;;6.90;99.90;;;;;;5074386;28;19925;-82
2021/11/14 00:47:24;;;;;;;;;;;6.90;99.90;;;;;;5074168;28;19929;-83
2021/11/14 00:49:51;;;;;;;;;;;6.80;99.90;;;;;;5067578;28;19924;-83
2021/11/14 00:52:17;;;;;;;;;;;6.90;99.90;;;;;;5064726;28;19947;-82
2021/11/14 00:54:44;;;;;;;;;;;6.70;99.90;;;;;;5064352;28;19924;-82
2021/11/14 00:57:10;;;;;;;;;;;6.60;99.90;;;;;;5065454;28;20388;-84
2021/11/14 00:59:38;;;;;;;;;;;7.00;99.90;;;;;;5064151;28;19956;-82
2021/11/14 01:02:05;;;;;;;;;;;7.00;99.90;;;;;;5062492;28;19924;-84
2021/11/14 01:04:33;;;;;;;;;;;6.90;99.90;;;;;;5062234;28;19974;-81
2021/11/14 01:07:00;;;;;;;;;;;7.10;99.90;;;;;;5060739;28;19925;-83
2021/11/14 01:09:26;;;;;;;;;;;6.90;99.90;;;;;;5059747;28;19925;-81
2021/11/14 01:11:53;;;;;;;;;;;6.90;99.90;;;;;;5072763;28;19967;-82
2021/11/14 01:14:20;;;;;;;;;;;6.90;99.90;;;;;;5077494;28;19948;-83
2021/11/14 01:16:46;;;;;;;;;;;6.50;99.90;;;;;;5072410;28;19948;-84
2021/11/14 01:19:13;;;;;;;;;;;6.80;99.90;;;;;;5060878;28;19929;-83
2021/11/14 01:21:45;;;;;;;;;;;6.90;99.90;;;;;;5061594;28;19931;-84
2021/11/14 01:24:12;;;;;;;;;;;6.90;99.90;;;;;;5066803;28;19929;-80
2021/11/14 01:26:39;;;;;;;;;;;6.90;99.90;;;;;;5075381;28;19974;-82
2021/11/14 01:29:05;;;;;;;;;;;6.90;99.90;;;;;;5074155;28;19931;-84
2021/11/14 01:31:32;;;;;;;;;;;6.90;99.90;;;;;;5073052;28;19933;-83
2021/11/14 01:33:59;;;;;;;;;;;6.90;99.90;;;;;;5062237;28;19925;-81
2021/11/14 01:36:25;;;;;;;;;;;7.00;99.90;;;;;;5062599;28;19932;-84
2021/11/14 01:38:53;;;;;;;;;;;7.00;99.90;;;;;;5061749;28;19978;-82
2021/11/14 01:41:19;;;;;;;;;;;7.00;99.90;;;;;;5061020;28;20445;-84
2021/11/14 01:43:47;;;;;;;;;;;6.90;99.90;;;;;;5060961;28;19925;-84
2021/11/14 01:46:14;;;;;;;;;;;6.90;99.90;;;;;;5062442;28;19947;-83
2021/11/14 01:48:41;;;;;;;;;;;6.90;99.90;;;;;;5061289;28;19979;-84
2021/11/14 01:51:08;;;;;;;;;;;6.90;99.90;;;;;;5061241;28;19948;-83
2021/11/14 01:53:37;;;;;;;;;;;7.00;99.90;;;;;;5060187;28;19931;-83
2021/11/14 01:56:06;;;;;;;;;;;7.00;99.90;;;;;;5064362;28;20380;-83
2021/11/14 01:58:32;;;;;;;;;;;7.00;99.90;;;;;;5066282;28;19924;-83
2021/11/14 02:01:00;;;;;;;;;;;6.90;99.90;;;;;;5068553;28;19928;-83
2021/11/14 02:03:27;;;;;;;;;;;6.90;99.90;;;;;;5065259;28;19924;-83
2021/11/14 02:05:54;;;;;;;;;;;7.00;99.90;;;;;;5064446;28;20284;-83
2021/11/14 02:08:21;;;;;;;;;;;7.10;99.90;;;;;;5073955;28;19932;-80
2021/11/14 02:10:48;;;;;;;;;;;7.10;99.90;;;;;;5065953;28;19925;-83
2021/11/14 02:13:15;;;;;;;;;;;7.10;99.90;;;;;;5062803;28;19925;-83
2021/11/14 02:15:42;;;;;;;;;;;7.10;99.90;;;;;;5061979;28;19925;-83
2021/11/14 02:18:10;;;;;;;;;;;7.10;99.90;;;;;;5063075;28;19925;-83
2021/11/14 02:20:38;;;;;;;;;;;7.00;99.90;;;;;;5070482;28;20350;-84
2021/11/14 02:23:06;;;;;;;;;;;7.10;99.90;;;;;;5069484;28;19995;-83
2021/11/14 02:25:33;;;;;;;;;;;7.10;99.90;;;;;;5070997;28;19947;-83
2021/11/14 02:27:59;;;;;;;;;;;7.10;99.90;;;;;;5067904;28;19925;-84
2021/11/14 02:30:27;;;;;;;;;;;7.10;99.90;;;;;;5066574;28;19957;-82
2021/11/14 02:32:54;;;;;;;;;;;7.20;99.90;;;;;;5065013;28;19933;-82
2021/11/14 02:35:21;;;;;;;;;;;7.20;99.90;;;;;;5064846;28;19933;-83
2021/11/14 02:37:49;;;;;;;;;;;7.20;99.90;;;;;;5045040;28;19932;-82
2021/11/14 02:40:16;;;;;;;;;;;7.20;99.90;;;;;;5045165;28;19925;-84
2021/11/14 02:42:44;;;;;;;;;;;6.90;99.90;;;;;;5043853;28;19936;-82
2021/11/14 02:45:11;;;;;;;;;;;9.30;99.90;;;;;;5046505;28;19956;-83
2021/11/14 02:47:38;;;;;;;;;;;7.10;99.90;;;;;;5059802;28;19929;-82
2021/11/14 02:50:05;;;;;;;;;;;7.00;99.90;;;;;;5061159;28;19932;-82
2021/11/14 02:52:31;;;;;;;;;;;7.00;99.90;;;;;;5061115;28;19913;-81
2021/11/14 02:54:59;;;;;;;;;;;7.00;99.90;;;;;;5061097;28;19909;-82
2021/11/14 02:57:26;;;;;;;;;;;7.00;99.90;;;;;;5061499;28;19909;-80
2021/11/14 02:59:52;;;;;;;;;;;7.00;99.90;;;;;;5049778;28;19925;-81
2021/11/14 03:02:19;;;;;;;;;;;6.90;99.90;;;;;;5048041;28;19925;-83
2021/11/14 03:04:46;;;;;;;;;;;6.90;99.90;;;;;;5056911;28;20388;-81
2021/11/14 03:07:12;;;;;;;;;;;6.80;99.90;;;;;;5057867;28;19925;-81
2021/11/14 03:09:39;;;;;;;;;;;6.90;99.90;;;;;;5051821;28;20365;-83
2021/11/14 03:12:07;;;;;;;;;;;6.90;99.90;;;;;;5045226;28;19971;-83
2021/11/14 03:14:34;;;;;;;;;;;6.90;99.90;;;;;;5043209;28;20339;-83
2021/11/14 03:17:01;;;;;;;;;;;6.90;99.90;;;;;;5044067;28;19925;-83
2021/11/14 03:19:27;;;;;;;;;;;6.90;99.90;;;;;;5057600;28;19967;-82
2021/11/14 03:21:54;;;;;;;;;;;6.90;99.90;;;;;;5059102;28;19940;-82
2021/11/14 03:24:20;;;;;;;;;;;6.90;99.90;;;;;;5057246;28;19932;-82
2021/11/14 03:26:47;;;;;;;;;;;6.90;99.90;;;;;;5052392;28;19948;-83
2021/11/14 03:29:14;;;;;;;;;;;6.90;99.90;;;;;;5049125;28;19936;-83
2021/11/14 03:31:41;;;;;;;;;;;6.90;99.90;;;;;;5048532;28;19925;-83
2021/11/14 03:34:08;;;;;;;;;;;6.90;99.90;;;;;;5047479;28;20308;-84
2021/11/14 03:36:34;;;;;;;;;;;6.90;99.90;;;;;;5047525;28;19925;-83
2021/11/14 03:39:02;;;;;;;;;;;6.90;99.90;;;;;;5045877;28;19925;-83
2021/11/14 03:41:30;;;;;;;;;;;6.90;99.90;;;;;;5044586;28;19925;-83
2021/11/14 03:43:56;;;;;;;;;;;6.80;99.90;;;;;;5042706;28;20384;-83
2021/11/14 03:46:25;;;;;;;;;;;6.90;99.90;;;;;;5042754;28;19929;-84
2021/11/14 03:48:53;;;;;;;;;;;6.90;99.90;;;;;;5043551;28;19975;-84
2021/11/14 03:51:20;;;;;;;;;;;6.90;99.90;;;;;;5043585;28;19925;-82
2021/11/14 03:53:47;;;;;;;;;;;6.80;99.90;;;;;;5042227;28;19932;-81
2021/11/14 03:56:13;;;;;;;;;;;6.80;99.90;;;;;;5042291;28;19940;-85
2021/11/14 03:58:40;;;;;;;;;;;6.80;99.90;;;;;;5044055;28;19925;-82
2021/11/14 04:01:08;;;;;;;;;;;6.70;99.90;;;;;;5055347;28;19932;-81
2021/11/14 04:03:37;;;;;;;;;;;6.70;99.90;;;;;;5050488;28;19925;-83
2021/11/14 04:06:06;;;;;;;;;;;6.70;99.90;;;;;;5054800;28;19925;-80
2021/11/14 04:08:32;;;;;;;;;;;6.70;99.90;;;;;;5055421;28;19948;-81
2021/11/14 04:10:59;;;;;;;;;;;6.70;99.90;;;;;;5047653;28;19932;-83
2021/11/14 04:13:26;;;;;;;;;;;6.80;99.90;;;;;;5045868;28;19925;-82
2021/11/14 04:15:53;;;;;;;;;;;6.80;99.90;;;;;;5053776;28;19952;-81
2021/11/14 04:18:19;;;;;;;;;;;6.80;99.90;;;;;;5055970;28;19936;-81
2021/11/14 04:20:50;;;;;;;;;;;6.80;99.90;;;;;;5056976;28;19948;-81
2021/11/14 04:23:18;;;;;;;;;;;6.90;99.90;;;;;;5058473;28;19913;-80
2021/11/14 04:25:45;;;;;;;;;;;6.80;99.90;;;;;;5058584;28;19968;-81
2021/11/14 04:28:12;;;;;;;;;;;6.70;99.90;;;;;;5058014;28;20011;-82
2021/11/14 04:30:39;;;;;;;;;;;6.70;99.90;;;;;;5057433;28;19973;-81
2021/11/14 04:33:06;;;;;;;;;;;6.80;99.90;;;;;;5057777;28;19909;-81
2021/11/14 04:35:32;;;;;;;;;;;6.90;99.90;;;;;;5056239;28;19925;-82
2021/11/14 04:38:00;;;;;;;;;;;7.20;99.90;;;;;;5056872;28;19932;-83
2021/11/14 04:40:28;;;;;;;;;;;6.80;99.90;;;;;;5057007;28;19925;-81
2021/11/14 04:42:55;;;;;;;;;;;6.90;99.90;;;;;;5057458;28;19924;-82
2021/11/14 04:45:22;;;;;;;;;;;6.80;99.90;;;;;;5048628;28;19925;-83
2021/11/14 04:47:48;;;;;;;;;;;6.90;99.90;;;;;;5044892;28;19964;-83
2021/11/14 04:50:16;;;;;;;;;;;6.90;99.90;;;;;;5042398;28;19925;-83
2021/11/14 04:52:43;;;;;;;;;;;7.10;99.90;;;;;;5043846;28;19948;-83
2021/11/14 04:55:11;;;;;;;;;;;7.00;99.90;;;;;;5043101;28;19932;-84
2021/11/14 04:57:38;;;;;;;;;;;7.00;99.90;;;;;;5042970;28;19925;-82
2021/11/14 05:00:06;;;;;;;;;;;7.00;99.90;;;;;;5041980;28;19963;-83
2021/11/14 05:02:33;;;;;;;;;;;7.00;99.90;;;;;;5041545;28;19925;-83
2021/11/14 05:04:59;;;;;;;;;;;6.90;99.90;;;;;;5041393;28;19925;-83
2021/11/14 05:07:26;;;;;;;;;;;6.90;99.90;;;;;;5042317;28;19925;-83
2021/11/14 05:09:52;;;;;;;;;;;6.80;99.90;;;;;;5043635;28;19925;-82
2021/11/14 05:12:20;;;;;;;;;;;6.80;99.90;;;;;;5042631;28;19979;-83
2021/11/14 05:14:46;;;;;;;;;;;6.80;99.90;;;;;;5041806;28;19933;-83
2021/11/14 05:17:13;;;;;;;;;;;6.90;99.90;;;;;;5043596;28;19981;-83
2021/11/14 05:19:40;;;;;;;;;;;7.00;99.90;;;;;;5073015;22;19925;-83
2021/11/14 05:22:06;;;;;;;;;;;8.00;99.90;;;;;;5053335;28;19925;-83
2021/11/14 05:24:33;;;;;;;;;;;6.90;99.90;;;;;;5053222;28;19951;-83
2021/11/14 05:26:59;;;;;;;;;;;7.00;99.90;;;;;;5056879;28;19932;-83
2021/11/14 05:29:27;;;;;;;;;;;7.00;99.90;;;;;;5057217;28;19940;-83
2021/11/14 05:31:53;;;;;;;;;;;7.00;99.90;;;;;;5057684;28;19913;-82
2021/11/14 05:34:20;;;;;;;;;;;7.00;99.90;;;;;;5057552;28;19940;-82
2021/11/14 05:36:46;;;;;;;;;;;7.00;99.90;;;;;;5056949;28;19925;-83
2021/11/14 05:39:13;;;;;;;;;;;6.90;99.90;;;;;;5055679;28;19925;-83
2021/11/14 05:41:39;;;;;;;;;;;6.90;99.90;;;;;;5056567;28;19924;-83
2021/11/14 05:44:07;;;;;;;;;;;6.90;99.90;;;;;;5055601;28;19956;-83
2021/11/14 05:46:35;;;;;;;;;;;6.90;99.90;;;;;;5055178;28;19931;-82
2021/11/14 05:49:06;;;;;;;;;;;6.90;99.90;;;;;;5055551;28;19936;-83
2021/11/14 05:51:33;;;;;;;;;;;7.00;99.90;;;;;;5051640;28;19926;-83
2021/11/14 05:53:59;;;;;;;;;;;7.00;99.90;;;;;;5052087;28;19925;-83
2021/11/14 05:56:26;;;;;;;;;;;6.90;99.90;;;;;;5046021;28;20299;-83
2021/11/14 05:58:54;;;;;;;;;;;6.80;99.90;;;;;;5043299;28;20007;-83
2021/11/14 06:01:27;;;;;;;;;;;7.80;99.90;;;;;;5043832;28;19925;-83
2021/11/14 06:03:59;;;;;;;;;;;6.70;99.90;;;;;;5059252;28;19913;-82
2021/11/14 06:06:26;;;;;;;;;;;6.70;99.90;;;;;;5057647;28;20326;-83
2021/11/14 06:08:52;;;;;;;;;;;6.80;99.90;;;;;;5050462;28;19933;-83
2021/11/14 06:11:19;;;;;;;;;;;6.80;99.90;;;;;;5049468;28;19952;-83
2021/11/14 06:13:47;;;;;;;;;;;6.70;99.90;;;;;;5056642;28;19921;-82
2021/11/14 06:16:13;;;;;;;;;;;6.60;99.90;;;;;;5061307;28;19917;-82
2021/11/14 06:18:40;;;;;;;;;;;6.70;99.90;;;;;;5059479;28;19932;-82
2021/11/14 06:21:08;;;;;;;;;;;6.80;99.90;;;;;;5055139;28;19967;-83
2021/11/14 06:23:34;;;;;;;;;;;6.80;99.90;;;;;;5049368;28;19929;-82
2021/11/14 06:26:01;;;;;;;;;;;6.80;99.90;;;;;;5043617;28;19951;-83
2021/11/14 06:28:27;;;;;;;;;;;6.80;99.90;;;;;;5055417;28;19925;-82
2021/11/14 06:30:54;;;;;;;;;;;6.80;99.90;;;;;;5059240;28;19929;-82
2021/11/14 06:33:20;;;;;;;;;;;6.80;99.90;;;;;;5055854;28;19925;-83
2021/11/14 06:35:47;;;;;;;;;;;6.90;99.90;;;;;;5050787;28;19925;-82
2021/11/14 06:38:15;;;;;;;;;;;6.90;99.90;;;;;;5049766;28;19960;-83
2021/11/14 06:40:42;;;;;;;;;;;6.80;99.90;;;;;;5043191;28;19984;-84
2021/11/14 06:43:08;;;;;;;;;;;6.90;99.90;;;;;;5039752;28;19925;-82
2021/11/14 06:45:35;;;;;;;;;;;6.90;99.90;;;;;;5040524;28;20400;-83
2021/11/14 06:48:01;;;;;;;;;;;6.90;99.90;;;;;;5046317;28;19936;-82
2021/11/14 06:50:28;;;;;;;;;;;6.80;99.90;;;;;;5055132;28;19931;-82
2021/11/14 06:52:54;;;;;;;;;;;6.80;99.90;;;;;;5058252;28;19924;-82
2021/11/14 06:55:22;;;;;;;;;;;6.70;99.90;;;;;;5057600;28;19929;-83
2021/11/14 06:57:49;;;;;;;;;;;6.60;99.90;;;;;;5050887;28;19986;-84
2021/11/14 07:00:17;;;;;;;;;;;6.50;99.90;;;;;;5048392;28;19929;-84
2021/11/14 07:02:43;;;;;;;;;;;6.40;99.90;;;;;;5047666;28;19932;-84
2021/11/14 07:05:10;;;;;;;;;;;6.80;99.90;;;;;;5047994;28;19925;-84
2021/11/14 07:07:36;;;;;;;;;;;6.40;99.90;;;;;;5047406;28;19925;-83
2021/11/14 07:10:03;;;;;;;;;;;6.40;99.90;;;;;;5047075;28;20388;-83
2021/11/14 07:12:31;;;;;;;;;;;6.30;99.90;;;;;;5047100;28;20020;-83
2021/11/14 07:14:57;;;;;;;;;;;6.40;99.90;;;;;;5047282;28;19925;-83
2021/11/14 07:17:26;;;;;;;;;;;8.60;99.90;;;;;;5050103;28;19936;-83
2021/11/14 07:19:53;;;;;;;;;;;6.30;99.90;;;;;;5057226;28;19925;-83
2021/11/14 07:22:19;;;;;;;;;;;6.20;99.90;;;;;;5044573;28;20442;-82
2021/11/14 07:24:46;;;;;;;;;;;6.20;99.90;;;;;;5041723;28;19933;-82
2021/11/14 07:27:13;;;;;;;;;;;6.20;99.90;;;;;;5043320;28;19925;-83
2021/11/14 07:29:40;;;;;;;;;;;6.20;99.90;;;;;;5043576;28;20249;-82
2021/11/14 07:32:07;;;;;;;;;;;6.20;99.90;;;;;;5055637;28;19917;-82
2021/11/14 07:34:34;;;;;;;;;;;6.30;99.90;;;;;;5057013;28;19925;-82
2021/11/14 07:37:00;;;;;;;;;;;6.30;99.90;;;;;;5051600;28;19933;-84
2021/11/14 07:39:27;;;;;;;;;;;6.30;99.90;;;;;;5047807;28;19925;-84
2021/11/14 07:41:54;;;;;;;;;;;7.40;99.90;;;;;;5046990;28;19925;-83
2021/11/14 07:44:20;;;;;;;;;;;6.30;99.90;;;;;;5048582;28;19932;-83
2021/11/14 07:46:48;;;;;;;;;;;6.20;99.90;;;;;;5044286;28;19948;-83
2021/11/14 07:49:15;;;;;;;;;;;6.10;99.90;;;;;;5043373;28;19925;-83
2021/11/14 07:51:42;;;;;;;;;;;6.10;99.90;;;;;;5045167;28;19925;-82
2021/11/14 07:54:08;;;;;;;;;;;6.00;99.90;;;;;;5056242;28;19913;-82
2021/11/14 07:56:35;;;;;;;;;;;5.80;99.90;;;;;;5059553;28;19924;-83
2021/11/14 07:59:01;;;;;;;;;;;5.70;99.90;;;;;;5052714;28;19936;-84
2021/11/14 08:01:28;;;;;;;;;;;5.70;99.90;;;;;;5047763;28;20060;-84
2021/11/14 08:03:56;;;;;;;;;;;5.90;99.90;;;;;;5052313;28;19952;-83
2021/11/14 08:06:22;;;;;;;;;;;5.70;99.90;;;;;;5055954;28;19913;-83
2021/11/14 08:08:49;;;;;;;;;;;5.80;99.90;;;;;;5054348;28;19917;-84
2021/11/14 08:11:16;;;;;;;;;;;4.80;99.90;;;;;;5050217;28;20006;-84
2021/11/14 08:13:42;;;;;;;;;;;5.90;99.90;;;;;;5047201;28;19972;-84
2021/11/14 08:16:09;;;;;;;;;;;5.80;99.90;;;;;;5048933;28;19960;-84
2021/11/14 08:18:35;;;;;;;;;;;5.90;99.90;;;;;;5049566;28;19987;-84
2021/11/14 08:21:03;;;;;;;;;;;5.90;99.90;;;;;;5051059;28;19929;-83
2021/11/14 08:23:31;;;;;;;;;;;5.90;99.90;;;;;;5037448;28;19925;-85
2021/11/14 08:25:57;;;;;;;;;;;5.80;99.90;;;;;;5051349;28;19990;-84
2021/11/14 08:28:24;;;;;;;;;;;5.80;99.90;;;;;;5049063;28;19925;-82
2021/11/14 08:30:51;;;;;;;;;;;5.70;99.90;;;;;;5048656;28;19925;-83
2021/11/14 08:33:17;;;;;;;;;;;5.70;99.90;;;;;;5048597;28;19948;-83
2021/11/14 08:35:44;;;;;;;;;;;5.70;99.90;;;;;;5052092;28;19936;-82
2021/11/14 08:38:12;;;;;;;;;;;5.70;99.90;;;;;;5054302;28;19925;-82
2021/11/14 08:40:39;;;;;;;;;;;5.70;99.90;;;;;;5048000;28;19925;-83
2021/11/14 08:43:07;;;;;;;;;;;5.80;99.90;;;;;;5045945;28;19929;-82
2021/11/14 08:45:34;;;;;;;;;;;5.90;99.90;;;;;;5045601;28;19925;-83
2021/11/14 08:48:00;;;;;;;;;;;6.10;99.90;;;;;;5047621;28;19932;-83
2021/11/14 08:50:28;;;;;;;;;;;5.90;99.90;;;;;;5049248;28;20358;-82
2021/11/14 08:52:54;;;;;;;;;;;5.90;99.90;;;;;;5052947;28;19925;-83
2021/11/14 08:55:23;;;;;;;;;;;5.90;99.90;;;;;;5045020;28;19925;-83
2021/11/14 08:57:51;;;;;;;;;;;5.90;99.90;;;;;;5042808;28;19925;-83
2021/11/14 09:00:20;;;;;;;;;;;5.90;99.90;;;;;;5042625;28;19925;-83
2021/11/14 09:02:49;;;;;;;;;;;5.90;99.90;;;;;;5048596;28;19925;-83
2021/11/14 09:05:17;;;;;;;;;;;5.80;99.90;;;;;;5046748;28;20368;-83
2021/11/14 09:07:43;;;;;;;;;;;5.70;99.90;;;;;;5052525;28;19925;-82
2021/11/14 09:10:10;;;;;;;;;;;5.70;99.90;;;;;;5055203;28;19925;-83
2021/11/14 09:12:38;;;;;;;;;;;5.70;99.90;;;;;;5054406;28;19963;-83
2021/11/14 09:15:05;;;;;;;;;;;5.80;99.90;;;;;;5050535;28;19925;-83
2021/11/14 09:17:32;;;;;;;;;;;5.70;99.90;;;;;;5052714;28;19936;-82
2021/11/14 09:19:58;;;;;;;;;;;5.70;99.90;;;;;;5055407;28;19928;-83
2021/11/14 09:22:25;;;;;;;;;;;5.80;99.90;;;;;;5057928;28;19985;-82
2021/11/14 09:24:52;;;;;;;;;;;5.80;99.90;;;;;;5058161;28;19913;-82
2021/11/14 09:27:18;;;;;;;;;;;5.80;99.90;;;;;;5057804;28;19913;-81
2021/11/14 09:29:46;;;;;;;;;;;5.90;99.90;;;;;;5058063;28;19913;-82
2021/11/14 09:32:12;;;;;;;;;;;6.00;99.90;;;;;;5058303;28;19925;-81
2021/11/14 09:34:39;;;;;;;;;;;6.00;99.90;;;;;;5057116;28;19967;-83
2021/11/14 09:37:06;;;;;;;;;;;6.10;99.90;;;;;;5059363;28;19926;-83
2021/11/14 09:39:32;;;;;;;;;;;6.30;99.90;;;;;;5053535;28;19925;-84
2021/11/14 09:41:59;;;;;;;;;;;6.40;99.90;;;;;;5051486;28;20000;-85
2021/11/14 09:44:25;;;;;;;;;;;6.50;99.90;;;;;;5050867;28;19926;-83
2021/11/14 09:46:54;;;;;;;;;;;6.40;99.90;;;;;;5050142;28;19941;-83
2021/11/14 09:49:28;;;;;;;;;;;6.50;99.90;;;;;;5050418;28;19933;-85
2021/11/14 09:51:56;;;;;;;;;;;6.50;99.90;;;;;;5049916;28;19932;-84
2021/11/14 09:54:24;;;;;;;;;;;6.50;99.90;;;;;;5050279;28;19925;-83
2021/11/14 09:56:50;;;;;;;;;;;6.40;99.90;;;;;;5046717;28;19925;-83
2021/11/14 09:59:17;;;;;;;;;;;6.20;99.90;;;;;;5045859;28;20007;-83
2021/11/14 10:01:45;;;;;;;;;;;6.50;99.90;;;;;;5044979;28;19933;-83
2021/11/14 10:04:13;;;;;;;;;;;6.60;99.90;;;;;;5046124;28;20023;-84
2021/11/14 10:06:39;;;;;;;;;;;6.60;99.90;;;;;;5051974;28;19910;-83
2021/11/14 10:09:06;;;;;;;;;;;6.70;99.90;;;;;;5061479;28;19919;-83
2021/11/14 10:11:34;;;;;;;;;;;6.70;99.90;;;;;;5057581;28;19936;-85
2021/11/14 10:14:00;;;;;;;;;;;6.90;99.90;;;;;;5048179;28;20406;-84
2021/11/14 10:16:28;;;;;;;;;;;6.60;99.90;;;;;;5047957;28;19952;-85
2021/11/14 10:18:55;;;;;;;;;;;6.60;99.90;;;;;;5059057;28;19925;-82
2021/11/14 10:21:25;;;;;;;;;;;6.60;99.90;;;;;;5051757;28;19925;-84
2021/11/14 10:23:51;;;;;;;;;;;6.60;99.90;;;;;;5048377;28;20024;-84
2021/11/14 10:26:18;;;;;;;;;;;6.70;99.90;;;;;;5046757;28;19925;-83
2021/11/14 10:28:45;;;;;;;;;;;7.00;99.90;;;;;;5046120;28;19925;-83
2021/11/14 10:31:15;;;;;;;;;;;7.00;99.90;;;;;;5047744;28;19925;-83
2021/11/14 10:33:42;;;;;;;;;;;6.90;99.90;;;;;;5055452;28;19925;-84
2021/11/14 10:36:08;;;;;;;;;;;7.10;99.90;;;;;;5058353;28;19929;-84
2021/11/14 10:38:38;;;;;;;;;;;7.10;99.90;;;;;;5059143;28;19932;-83
2021/11/14 10:41:06;;;;;;;;;;;7.00;99.90;;;;;;5060629;28;19909;-83
2021/11/14 10:43:37;;;;;;;;;;;7.10;99.90;;;;;;5059914;28;19925;-84
2021/11/14 10:46:03;;;;;;;;;;;7.10;99.90;;;;;;5059475;28;19925;-84
2021/11/14 10:48:31;;;;;;;;;;;7.10;99.90;;;;;;5049337;28;19925;-83
2021/11/14 10:51:00;;;;;;;;;;;7.10;99.90;;;;;;5048785;28;19993;-83
2021/11/14 10:53:28;;;;;;;;;;;7.10;99.90;;;;;;5054459;28;19925;-83
2021/11/14 10:55:58;;;;;;;;;;;7.70;99.90;;;;;;5056987;28;19925;-83
2021/11/14 10:58:25;;;;;;;;;;;7.10;99.90;;;;;;5051880;28;19936;-84
2021/11/14 11:00:53;;;;;;;;;;;6.70;99.90;;;;;;5051096;28;19936;-84
2021/11/14 11:03:19;;;;;;;;;;;7.10;99.90;;;;;;5050341;28;19929;-83
2021/11/14 11:05:46;;;;;;;;;;;7.10;99.90;;;;;;5047487;28;19925;-83
2021/11/14 11:08:13;;;;;;;;;;;7.30;99.90;;;;;;5047042;28;19932;-84
2021/11/14 11:10:46;;;;;;;;;;;7.30;99.90;;;;;;5049118;28;19932;-85
2021/11/14 11:13:15;;;;;;;;;;;7.40;99.90;;;;;;5048191;28;20380;-83
2021/11/14 11:15:43;;;;;;;;;;;7.40;99.90;;;;;;5046771;28;20047;-83
2021/11/14 11:18:10;;;;;;;;;;;7.50;99.90;;;;;;5048006;28;20407;-83
2021/11/14 11:20:37;;;;;;;;;;;7.60;99.90;;;;;;5078150;22;19929;-84
2021/11/14 11:23:10;;;;;;;;;;;7.20;99.90;;;;;;5054713;28;19931;-82
2021/11/14 11:25:40;;;;;;;;;;;7.70;99.90;;;;;;5051571;28;20001;-82
2021/11/14 11:28:09;;;;;;;;;;;7.70;99.90;;;;;;5050099;28;19925;-83
2021/11/14 11:30:38;;;;;;;;;;;7.70;99.90;;;;;;5053185;28;19952;-83
2021/11/14 11:33:04;;;;;;;;;;;7.70;99.90;;;;;;5052059;28;19952;-84
2021/11/14 11:35:31;;;;;;;;;;;7.70;99.90;;;;;;5053024;28;19924;-83
2021/11/14 11:37:57;;;;;;;;;;;8.00;99.90;;;;;;5050421;28;19932;-84
2021/11/14 11:40:24;;;;;;;;;;;8.00;99.90;;;;;;5048359;28;19950;-80
2021/11/14 11:42:51;;;;;;;;;;;8.10;99.90;;;;;;5046853;28;19948;-82
2021/11/14 11:45:24;;;;;;;;;;;8.00;99.90;;;;;;5050233;28;19947;-83
2021/11/14 11:47:53;;;;;;;;;;;7.90;99.90;;;;;;5050013;28;19925;-81
2021/11/14 11:50:23;;;;;;;;;;;8.00;99.90;;;;;;5055141;28;19925;-81
2021/11/14 11:52:50;;;;;;;;;;;8.00;99.90;;;;;;5053548;28;19916;-81
2021/11/14 11:55:17;;;;;;;;;;;7.90;99.90;;;;;;5053890;28;19948;-81
2021/11/14 11:57:44;;;;;;;;;;;8.00;99.90;;;;;;5055642;28;19917;-83
2021/11/14 12:00:11;;;;;;;;;;;7.80;99.90;;;;;;5056648;28;19931;-83
2021/11/14 12:02:38;;;;;;;;;;;7.80;99.90;;;;;;5054474;28;20379;-82
2021/11/14 12:05:07;;;;;;;;;;;7.70;99.90;;;;;;5054035;28;19949;-82
2021/11/14 12:07:35;;;;;;;;;;;7.80;99.90;;;;;;5056464;28;19925;-82
2021/11/14 12:10:02;;;;;;;;;;;7.80;99.90;;;;;;5051746;28;19972;-83
2021/11/14 12:12:30;;;;;;;;;;;7.70;99.90;;;;;;5047001;28;20281;-82
2021/11/14 12:15:06;;;;;;;;;;;7.80;99.90;;;;;;5041983;28;20342;-83
2021/11/14 12:17:33;;;;;;;;;;;7.80;99.90;;;;;;5041141;28;19932;-81
2021/11/14 12:20:09;;;;;;;;;;;7.90;99.90;;;;;;5041259;28;19926;-82
2021/11/14 12:22:39;;;;;;;;;;;7.90;99.90;;;;;;5041291;28;19925;-82
2021/11/14 12:25:06;;;;;;;;;;;8.00;99.90;;;;;;5044912;28;19964;-82
2021/11/14 12:27:34;;;;;;;;;;;8.00;99.90;;;;;;5047484;28;19925;-83
2021/11/14 12:30:02;;;;;;;;;;;7.90;99.90;;;;;;5046746;28;19948;-83
2021/11/14 12:32:40;;;;;;;;;;;7.90;99.90;;;;;;5045619;28;19929;-83
2021/11/14 12:35:13;;;;;;;;;;;7.90;99.90;;;;;;5042563;28;19997;-82
2021/11/14 12:37:45;;;;;;;;;;;7.90;99.90;;;;;;5043557;28;19925;-83
2021/11/14 12:40:13;;;;;;;;;;;7.80;99.90;;;;;;5044478;28;19975;-82
2021/11/14 12:42:40;;;;;;;;;;;7.80;99.90;;;;;;5043135;28;19992;-82
2021/11/14 12:45:07;;;;;;;;;;;7.80;99.90;;;;;;5041658;28;19936;-83
2021/11/14 12:47:39;;;;;;;;;;;7.80;99.90;;;;;;5041085;28;19956;-83
2021/11/14 12:50:09;;;;;;;;;;;7.70;99.90;;;;;;5040184;28;20438;-82
2021/11/14 12:52:36;;;;;;;;;;;7.70;99.90;;;;;;5040060;28;19925;-84
2021/11/14 12:55:04;;;;;;;;;;;7.60;99.90;;;;;;5040517;28;19926;-81
2021/11/14 12:57:39;;;;;;;;;;;9.80;99.90;;;;;;5040870;28;19925;-83
2021/11/14 13:00:07;;;;;;;;;;;7.70;99.90;;;;;;5040740;28;20391;-83
2021/11/14 13:02:33;;;;;;;;;;;7.70;99.90;;;;;;5040515;28;19925;-82
2021/11/14 13:05:08;;;;;;;;;;;7.60;99.90;;;;;;5040294;28;19925;-84
2021/11/14 13:07:35;;;;;;;;;;;8.30;99.90;;;;;;5040184;28;19932;-83
2021/11/14 13:10:14;;;;;;;;;;;7.70;99.90;;;;;;5041426;28;19933;-83
2021/11/14 13:12:44;;;;;;;;;;;7.70;99.90;;;;;;5040465;28;20009;-83
2021/11/14 13:15:11;;;;;;;;;;;7.50;99.90;;;;;;5042944;28;19925;-83
2021/11/14 13:17:42;;;;;;;;;;;7.50;99.90;;;;;;5042586;28;19956;-83
2021/11/14 13:20:13;;;;;;;;;;;7.40;99.90;;;;;;5039934;28;19925;-83
2021/11/14 13:22:39;;;;;;;;;;;7.30;99.90;;;;;;5040479;28;19925;-83
2021/11/14 13:25:06;;;;;;;;;;;7.40;99.90;;;;;;5040297;28;19952;-83
2021/11/14 13:27:33;;;;;;;;;;;7.50;99.90;;;;;;5040054;28;20020;-83
2021/11/14 13:30:00;;;;;;;;;;;7.50;99.90;;;;;;5041391;28;19929;-83
2021/11/14 13:32:30;;;;;;;;;;;7.50;99.90;;;;;;5041006;28;19979;-83
2021/11/14 13:34:57;;;;;;;;;;;7.40;99.90;;;;;;5040897;28;20372;-83
2021/11/14 13:37:30;;;;;;;;;;;7.60;99.90;;;;;;5041341;28;19925;-83
2021/11/14 13:39:59;;;;;;;;;;;7.60;99.90;;;;;;5040872;28;19929;-83
2021/11/14 13:42:29;;;;;;;;;;;7.60;99.90;;;;;;5040118;28;19932;-83
2021/11/14 13:44:57;;;;;;;;;;;7.60;99.90;;;;;;5043597;28;19975;-84
2021/11/14 13:47:27;;;;;;;;;;;7.40;99.90;;;;;;5044434;28;19929;-82
2021/11/14 13:49:53;;;;;;;;;;;7.60;99.90;;;;;;5043393;28;19925;-82
2021/11/14 13:52:20;;;;;;;;;;;7.50;99.90;;;;;;5045971;28;20031;-82
2021/11/14 13:54:49;;;;;;;;;;;7.60;99.90;;;;;;5051481;28;19929;-81
2021/11/14 13:57:17;;;;;;;;;;;7.70;99.90;;;;;;5053193;28;19925;-83
2021/11/14 13:59:44;;;;;;;;;;;7.60;99.90;;;;;;5050236;28;19948;-83
2021/11/14 14:02:11;;;;;;;;;;;7.70;99.90;;;;;;5044958;28;19925;-82
2021/11/14 14:04:49;;;;;;;;;;;7.60;99.90;;;;;;5045796;28;19925;-82
2021/11/14 14:07:17;;;;;;;;;;;7.50;99.90;;;;;;5045476;28;20462;-82
2021/11/14 14:09:52;;;;;;;;;;;7.60;99.90;;;;;;5045455;28;19925;-83
2021/11/14 14:12:19;;;;;;;;;;;7.60;99.90;;;;;;5039985;28;19926;-84
2021/11/14 14:14:46;;;;;;;;;;;7.10;99.90;;;;;;5040407;28;20032;-84
2021/11/14 14:17:13;;;;;;;;;;;7.60;99.90;;;;;;5041010;28;19925;-84
2021/11/14 14:19:42;;;;;;;;;;;7.50;99.90;;;;;;5040754;28;19925;-83
2021/11/14 14:22:09;;;;;;;;;;;7.40;99.90;;;;;;5043092;28;19956;-83
2021/11/14 14:24:42;;;;;;;;;;;7.60;99.90;;;;;;5051727;28;19926;-82
2021/11/14 14:27:15;;;;;;;;;;;7.50;99.90;;;;;;5055289;28;19925;-82
2021/11/14 14:29:42;;;;;;;;;;;7.50;99.90;;;;;;5054207;28;19925;-81
2021/11/14 14:32:14;;;;;;;;;;;7.50;99.90;;;;;;5045861;28;19936;-82